Change the Weather History Date:

Saturday, December 15, 2012

  Actual Average (KBLV) Record (KBLV)
Temperature  
Mean Temperature 52 °F -  
Max Temperature 59 °F 44 °F 75 °F (1948)
Min Temperature 46 °F 26 °F -2 °F (1989)
Degree Days  
Heating Degree Days 12    
Growing Degree Days 2 (Base 50)    
Moisture  
Dew Point 52 °F    
Average Humidity 96    
Maximum Humidity 100    
Minimum Humidity 66    
Precipitation  
Precipitation 0.22 in - - ()
Sea Level Pressure  
Sea Level Pressure 29.78 in    
Wind  
Wind Speed 13 mph (South)    
Max Wind Speed 25 mph    
Max Gust Speed 33 mph    
Visibility 10 miles    
Events Rain    
Averages and records for this station are not official NWS values.
T = Trace of Precipitation, MM = Missing Value Source: NWS Daily Summary

Daily Weather History Graph

Daily Weather History Graph

Search for Another Location

Airport or City:

Trip Planner

Search our weather history database for the weather conditions in past years. The results will help you decide how hot, cold, wet, or windy it might be!

Date:

Astronomy

Dec. 15, 2012 Rise Set
Actual Time 7:08 AM CST 4:40 PM CST
Civil Twilight 6:38 AM CST 5:09 PM CST
Nautical Twilight 6:05 AM CST 5:42 PM CST
Astronomical Twilight 5:33 AM CST 6:14 PM CST
Moon 9:02 AM CST (12/15) 7:42 PM CST (12/15)
Length of Visible Light 10h 30m
Length of Day
9h 31m
Waxing Crescent, 8% of the Moon is Illuminated
Dec 15
Waxing Crescent
Dec 19
First Quarter
Dec 28
Full
Jan 4
Last Quarter
Jan 11
New

Hourly Weather History & Observations

Time (CST) Temp. Windchill Dew Point Humidity Pressure Visibility Wind Dir Wind Speed Gust Speed Precip Events Conditions
12:15 AM 48.2 °F - 37.4 °F 66% 30.00 in 10.0 mi SSE 8.1 mph - N/A   Overcast
12:35 AM 50.0 °F - 39.2 °F 66% 29.99 in 10.0 mi South 9.2 mph - N/A   Light Drizzle
12:55 AM 50.0 °F - 41.0 °F 71% 29.98 in 10.0 mi SSE 9.2 mph - N/A Rain Rain
1:15 AM 50.0 °F - 44.6 °F 82% 29.98 in 10.0 mi SSE 8.1 mph - N/A   Overcast
1:35 AM 50.0 °F - 44.6 °F 82% 29.97 in 10.0 mi SSE 8.1 mph - N/A   Drizzle
1:55 AM 51.8 °F - 44.6 °F 76% 29.97 in 10.0 mi South 10.4 mph 16.1 mph N/A   Light Drizzle
2:15 AM 50.0 °F - 46.4 °F 87% 29.96 in 10.0 mi South 13.8 mph 19.6 mph N/A Rain Light Rain
2:35 AM 48.2 °F - 48.2 °F 100% 29.98 in 10.0 mi South 9.2 mph 17.3 mph 0.05 in Rain Rain
2:55 AM 46.4 °F 40.7 °F 46.4 °F 100% 29.94 in 10.0 mi SSE 12.7 mph 16.1 mph 0.08 in Rain Light Rain
3:15 AM 46.4 °F 40.7 °F 46.4 °F 100% 29.92 in 10.0 mi SE 12.7 mph 18.4 mph 0.02 in Rain Rain
3:35 AM 46.4 °F 41.5 °F 46.4 °F 100% 29.91 in 10.0 mi SE 10.4 mph 17.3 mph N/A Rain Light Rain
3:55 AM 46.4 °F 40.7 °F 46.4 °F 100% 29.91 in 10.0 mi SSE 12.7 mph - 0.03 in Rain Rain
4:15 AM 46.4 °F 40.7 °F 46.4 °F 100% 29.89 in 10.0 mi SSE 12.7 mph 18.4 mph N/A   Light Drizzle
4:35 AM 46.4 °F 40.4 °F 46.4 °F 100% 29.86 in 10.0 mi SE 13.8 mph 18.4 mph N/A Rain Light Rain
4:55 AM 46.4 °F 39.8 °F 46.4 °F 100% 29.85 in 10.0 mi SSE 16.1 mph - N/A   Overcast
5:15 AM 48.2 °F - 48.2 °F 100% 29.85 in 10.0 mi SSE 13.8 mph 19.6 mph N/A   Overcast
5:35 AM 48.2 °F - 48.2 °F 100% 29.89 in 10.0 mi South 9.2 mph - N/A Rain Rain
5:55 AM 48.2 °F - 48.2 °F 100% 29.86 in 10.0 mi SSE 15.0 mph 20.7 mph 0.10 in Rain Light Rain
6:15 AM 48.2 °F - 48.2 °F 100% 29.84 in 10.0 mi SSE 16.1 mph 21.9 mph 0.01 in   Overcast
6:35 AM 48.2 °F - 48.2 °F 100% 29.81 in 10.0 mi SSE 17.3 mph 24.2 mph 0.01 in Rain Light Rain
6:55 AM 48.2 °F - 48.2 °F 100% 29.81 in 10.0 mi SSE 18.4 mph 25.3 mph 0.01 in   Overcast
7:15 AM 50.0 °F - 50.0 °F 100% 29.80 in 10.0 mi SSE 18.4 mph 29.9 mph N/A   Overcast
7:35 AM 50.0 °F - 50.0 °F 100% 29.80 in 10.0 mi South 12.7 mph 27.6 mph N/A   Overcast
7:55 AM 51.8 °F - 51.8 °F 100% 29.79 in 10.0 mi SSE 16.1 mph 31.1 mph N/A   Overcast
8:15 AM 51.8 °F - 51.8 °F 100% 29.79 in 10.0 mi South 19.6 mph 28.8 mph N/A   Overcast
8:35 AM 51.8 °F - 51.8 °F 100% 29.77 in 10.0 mi South 23.0 mph 31.1 mph N/A   Overcast
8:55 AM 50.0 °F - 50.0 °F 100% 29.77 in 10.0 mi South 19.6 mph 33.4 mph N/A   Overcast
9:15 AM 50.0 °F - 50.0 °F 100% 29.78 in 7.0 mi South 21.9 mph 27.6 mph N/A   Overcast
9:35 AM 51.8 °F - 51.8 °F 100% 29.78 in 10.0 mi South 19.6 mph 29.9 mph N/A   Overcast
9:55 AM 51.8 °F - 51.8 °F 100% 29.78 in 10.0 mi South 18.4 mph 26.5 mph N/A   Overcast
10:15 AM 51.8 °F - 51.8 °F 100% 29.77 in 10.0 mi South 20.7 mph 28.8 mph N/A   Overcast
10:35 AM 51.8 °F - 51.8 °F 100% 29.75 in 10.0 mi South 18.4 mph 23.0 mph N/A   Overcast
10:55 AM 51.8 °F - 51.8 °F 100% 29.75 in 10.0 mi South 17.3 mph 27.6 mph N/A   Overcast
11:15 AM 53.6 °F - 53.6 °F 100% 29.74 in 10.0 mi South 19.6 mph 25.3 mph N/A   Overcast
11:35 AM 53.6 °F - 53.6 °F 100% 29.72 in 10.0 mi South 18.4 mph 23.0 mph N/A   Overcast
11:55 AM 53.6 °F - 53.6 °F 100% 29.72 in 10.0 mi South 16.1 mph 25.3 mph N/A   Overcast
12:15 PM 53.6 °F - 53.6 °F 100% 29.70 in 10.0 mi South 17.3 mph 24.2 mph N/A   Overcast
12:35 PM 55.4 °F - 55.4 °F 100% 29.69 in 10.0 mi South 18.4 mph 25.3 mph N/A   Overcast
12:55 PM 55.4 °F - 55.4 °F 100% 29.67 in 10.0 mi South 23.0 mph 28.8 mph N/A   Overcast
1:15 PM 55.4 °F - 55.4 °F 100% 29.66 in 10.0 mi South 19.6 mph 33.4 mph N/A   Overcast
1:35 PM 57.2 °F - 55.4 °F 94% 29.64 in 10.0 mi South 25.3 mph 31.1 mph N/A   Mostly Cloudy
1:55 PM 57.2 °F - 57.2 °F 100% 29.65 in 10.0 mi South 18.4 mph 32.2 mph N/A   Scattered Clouds
2:15 PM 59.0 °F - 55.4 °F 88% 29.65 in 10.0 mi South 20.7 mph 26.5 mph N/A   Scattered Clouds
2:35 PM 59.0 °F - 55.4 °F 88% 29.66 in 10.0 mi South 17.3 mph 26.5 mph N/A   Scattered Clouds
2:55 PM 59.0 °F - 55.4 °F 88% 29.66 in 10.0 mi South 12.7 mph 24.2 mph N/A   Mostly Cloudy
3:15 PM 59.0 °F - 55.4 °F 88% 29.67 in 10.0 mi South 15.0 mph 24.2 mph N/A   Mostly Cloudy
3:35 PM 59.0 °F - 55.4 °F 88% 29.67 in 10.0 mi South 9.2 mph 20.7 mph N/A   Overcast
3:55 PM 57.2 °F - 55.4 °F 94% 29.67 in 10.0 mi South 17.3 mph 21.9 mph N/A   Overcast
4:15 PM 57.2 °F - 55.4 °F 94% 29.68 in 10.0 mi South 10.4 mph 21.9 mph N/A   Scattered Clouds
4:35 PM 57.2 °F - 55.4 °F 94% 29.68 in 10.0 mi South 10.4 mph - N/A   Clear
4:55 PM 55.4 °F - 55.4 °F 100% 29.69 in 10.0 mi South 11.5 mph 18.4 mph N/A   Clear
5:15 PM 55.4 °F - 55.4 °F 100% 29.69 in 10.0 mi South 11.5 mph 16.1 mph N/A   Clear
5:35 PM 55.4 °F - 55.4 °F 100% 29.69 in 10.0 mi South 11.5 mph 16.1 mph N/A   Clear
5:55 PM 55.4 °F - 55.4 °F 100% 29.70 in 10.0 mi South 10.4 mph - N/A   Clear
6:15 PM 55.4 °F - 55.4 °F 100% 29.70 in 10.0 mi South 10.4 mph - N/A   Clear
6:35 PM 55.4 °F - 55.4 °F 100% 29.71 in 10.0 mi South 10.4 mph - N/A   Clear
6:55 PM 55.4 °F - 55.4 °F 100% 29.71 in 10.0 mi South 10.4 mph - N/A   Clear
7:15 PM 55.4 °F - 55.4 °F 100% 29.72 in 10.0 mi South 9.2 mph - N/A   Clear
7:35 PM 55.4 °F - 55.4 °F 100% 29.72 in 10.0 mi South 10.4 mph - N/A   Clear
7:55 PM 55.4 °F - 55.4 °F 100% 29.73 in 10.0 mi South 9.2 mph - N/A   Clear
8:15 PM 55.4 °F - 55.4 °F 100% 29.73 in 10.0 mi South 6.9 mph - N/A   Clear
8:35 PM 55.4 °F - 55.4 °F 100% 29.73 in 10.0 mi South 6.9 mph - N/A   Clear
8:55 PM 55.4 °F - 55.4 °F 100% 29.73 in 10.0 mi South 6.9 mph - N/A   Clear
9:15 PM 55.4 °F - 55.4 °F 100% 29.74 in 10.0 mi SSW 6.9 mph - N/A   Clear
9:35 PM 55.4 °F - 55.4 °F 100% 29.74 in 10.0 mi South 6.9 mph - N/A   Clear
9:55 PM 55.4 °F - 55.4 °F 100% 29.73 in 10.0 mi South 9.2 mph - N/A   Clear
10:15 PM 55.4 °F - 55.4 °F 100% 29.73 in 10.0 mi South 9.2 mph - N/A   Clear
10:35 PM 55.4 °F - 55.4 °F 100% 29.74 in 10.0 mi SSW 6.9 mph - N/A   Clear
10:55 PM 55.4 °F - 55.4 °F 100% 29.73 in 10.0 mi South 8.1 mph - N/A   Clear
11:15 PM 55.4 °F - 55.4 °F 100% 29.74 in 10.0 mi SSW 6.9 mph - N/A   Clear
11:35 PM 53.6 °F - 53.6 °F 100% 29.74 in 10.0 mi SSW 5.8 mph - N/A   Clear
11:55 PM 53.6 °F - 53.6 °F 100% 29.74 in 10.0 mi SSW 5.8 mph - N/A   Clear